Terminal Aerodrome Forecast
Issued by NWS Bismarck, ND

Home | Current Version | Previous Version | Text Only | Print | Product List | Glossary On
Versions: 1 2 3 4 5 6 7 8 9 10 11 12 13 14 15 16 17 18 19 20 21 22 23 24 25 26 27 28 29 30
000
FTUS43 KBIS 282333
TAFBIS
TAF
KBIS 282333Z 2900/2924 03005KT P6SM BKN050
     FM290500 06004KT P6SM SCT045
     FM291000 08004KT P6SM BKN025
     FM291400 13004KT P6SM SCT035=

USA.gov is the U.S. government's official web portal to all federal, state and local government web resources and services.